Time;durP1;ratioP1;P1;durP2;ratioP2;P2;SDS_P1;SDS_P2;PMS_P1;PMS_P2;Temp;Humidity;BMP_temperature;BMP_pressure;BME280_temperature;BME280_humidity;BME280_pressure;Samples;Min_cycle;Max_cycle;Signal;HPM_P1;HPM_P2
2022/11/27 00:01:33;;;;;;;24.23;16.17;;;6.80;99.90;;;;;;5074927;28;20457;-78
2022/11/27 00:04:01;;;;;;;20.20;15.30;;;6.80;99.90;;;;;;5072966;28;20466;-77
2022/11/27 00:06:31;;;;;;;23.70;16.57;;;6.80;99.90;;;;;;5074388;28;20487;-78
2022/11/27 00:09:01;;;;;;;20.70;14.70;;;6.80;99.90;;;;;;5072872;28;20973;-77
2022/11/27 00:11:31;;;;;;;23.50;15.17;;;6.80;99.90;;;;;;5072659;28;20970;-78
2022/11/27 00:14:00;;;;;;;22.80;16.47;;;6.80;99.90;;;;;;5072606;28;20500;-78
2022/11/27 00:16:28;;;;;;;27.17;15.20;;;6.70;99.90;;;;;;5072505;28;20450;-78
2022/11/27 00:18:57;;;;;;;20.80;15.90;;;6.70;99.90;;;;;;5074090;28;20431;-78
2022/11/27 00:21:27;;;;;;;21.13;14.67;;;6.70;99.90;;;;;;5072449;28;20465;-78
2022/11/27 00:23:58;;;;;;;23.17;15.77;;;6.70;99.90;;;;;;5073823;28;20457;-78
2022/11/27 00:26:27;;;;;;;18.80;15.83;;;6.70;99.90;;;;;;5068127;28;20969;-78
2022/11/27 00:29:02;;;;;;;22.17;14.63;;;6.70;99.90;;;;;;5074052;28;20463;-78
2022/11/27 00:31:32;;;;;;;18.20;13.97;;;6.60;99.90;;;;;;5073725;28;20480;-78
2022/11/27 00:34:02;;;;;;;18.60;12.70;;;6.60;99.90;;;;;;5072290;28;20461;-78
2022/11/27 00:36:32;;;;;;;19.17;14.10;;;6.60;99.90;;;;;;5072379;28;20452;-78
2022/11/27 00:39:00;;;;;;;21.03;13.83;;;6.60;99.90;;;;;;5072366;28;20492;-78
2022/11/27 00:41:30;;;;;;;22.30;14.83;;;6.60;99.90;;;;;;5073495;28;20926;-77
2022/11/27 00:44:00;;;;;;;22.80;13.10;;;6.70;99.90;;;;;;5072188;28;20465;-78
2022/11/27 00:46:31;;;;;;;20.50;13.97;;;6.60;99.90;;;;;;5072184;28;20453;-78
2022/11/27 00:49:02;;;;;;;18.73;14.17;;;6.60;99.90;;;;;;5074004;28;20883;-78
2022/11/27 00:51:31;;;;;;;19.70;13.53;;;6.60;99.90;;;;;;5072217;28;20433;-77
2022/11/27 00:53:59;;;;;;;24.53;13.27;;;6.60;99.90;;;;;;5073293;28;20473;-78
2022/11/27 00:56:29;;;;;;;21.30;14.30;;;6.60;99.90;;;;;;5072034;28;20457;-77
2022/11/27 00:58:57;;;;;;;19.40;13.00;;;6.60;99.90;;;;;;5073598;28;20442;-78
2022/11/27 01:01:27;;;;;;;18.50;12.47;;;6.60;99.90;;;;;;5073367;28;20450;-77
2022/11/27 01:03:59;;;;;;;17.63;13.40;;;6.60;99.90;;;;;;5073509;28;20484;-77
2022/11/27 01:06:29;;;;;;;22.77;13.47;;;6.60;99.90;;;;;;5072004;28;20449;-77
2022/11/27 01:08:58;;;;;;;19.23;12.57;;;6.60;99.90;;;;;;5073185;28;20445;-78
2022/11/27 01:11:28;;;;;;;19.40;11.90;;;6.60;99.90;;;;;;5071917;28;20950;-78
2022/11/27 01:13:58;;;;;;;17.23;12.30;;;6.50;99.90;;;;;;5072103;28;20469;-77
2022/11/27 01:16:28;;;;;;;21.00;12.90;;;6.60;99.90;;;;;;5069374;28;20467;-77
2022/11/27 01:18:59;;;;;;;20.57;13.13;;;6.60;99.90;;;;;;5073415;28;20414;-78
2022/11/27 01:21:29;;;;;;;20.43;13.03;;;6.50;99.90;;;;;;5071883;28;20447;-78
2022/11/27 01:23:59;;;;;;;22.00;13.33;;;6.50;99.90;;;;;;5073218;28;20495;-77
2022/11/27 01:26:27;;;;;;;18.00;13.40;;;6.50;99.90;;;;;;5072994;28;20433;-77
2022/11/27 01:28:57;;;;;;;15.77;12.60;;;6.50;99.90;;;;;;5071729;28;20453;-77
2022/11/27 01:31:27;;;;;;;19.50;12.20;;;6.50;99.90;;;;;;5073076;28;20456;-77
2022/11/27 01:33:59;;;;;;;17.30;12.30;;;6.50;99.90;;;;;;5072243;28;20523;-78
2022/11/27 01:36:28;;;;;;;16.17;12.07;;;6.50;99.90;;;;;;5073256;28;20427;-77
2022/11/27 01:38:56;;;;;;;17.60;12.17;;;6.50;99.90;;;;;;5073164;28;20433;-77
2022/11/27 01:41:29;;;;;;;15.93;12.30;;;6.50;99.90;;;;;;5072847;28;20433;-78
2022/11/27 01:43:59;;;;;;;26.50;12.37;;;6.50;99.90;;;;;;5072941;28;20481;-77
2022/11/27 01:46:38;;;;;;;21.00;12.30;;;6.50;99.90;;;;;;5071557;28;20429;-77
2022/11/27 01:49:24;;;;;;;18.40;13.10;;;6.50;99.90;;;;;;5072855;28;20436;-77
2022/11/27 01:51:57;;;;;;;15.47;11.60;;;6.50;99.90;;;;;;5072806;28;20424;-77
2022/11/27 01:54:28;;;;;;;15.47;12.30;;;6.50;99.90;;;;;;5071437;28;20457;-77
2022/11/27 01:57:02;;;;;;;18.27;11.87;;;6.50;99.90;;;;;;5072801;28;20452;-78
2022/11/27 01:59:31;;;;;;;16.50;11.70;;;6.50;99.90;;;;;;5074734;28;20905;-77
2022/11/27 02:02:00;;;;;;;16.00;12.10;;;6.50;99.90;;;;;;5075159;28;20437;-77
2022/11/27 02:04:30;;;;;;;18.73;12.40;;;6.40;99.90;;;;;;5075106;28;21047;-77
2022/11/27 02:06:59;;;;;;;16.10;12.43;;;6.40;99.90;;;;;;5074216;28;20537;-77
2022/11/27 02:09:29;;;;;;;15.80;12.13;;;6.40;99.90;;;;;;5075281;28;20938;-78
2022/11/27 02:12:05;;;;;;;16.07;13.07;;;6.40;99.90;;;;;;5075004;28;20973;-78
2022/11/27 02:14:43;;;;;;;18.47;13.10;;;6.40;99.90;;;;;;5074897;28;20468;-78
2022/11/27 02:17:18;;;;;;;18.57;12.83;;;6.40;99.90;;;;;;5076247;28;20426;-78
2022/11/27 02:20:10;;;;;;;14.80;12.53;;;6.30;99.90;;;;;;5076511;28;20429;-78
2022/11/27 02:23:00;;;;;;;25.87;13.77;;;6.30;99.90;;;;;;5075041;28;20821;-78
2022/11/27 02:25:40;;;;;;;14.67;13.07;;;6.30;99.90;;;;;;5076335;28;20757;-78
2022/11/27 02:28:29;;;;;;;19.53;13.37;;;6.30;99.90;;;;;;5076273;28;20551;-78
2022/11/27 02:31:04;;;;;;;19.47;14.93;;;6.20;99.90;;;;;;5074519;28;20959;-77
2022/11/27 02:33:34;;;;;;;19.37;14.80;;;6.20;99.90;;;;;;5074636;28;20464;-77
2022/11/27 02:36:08;;;;;;;23.20;14.63;;;6.20;99.90;;;;;;5074663;28;20808;-77
2022/11/27 02:38:41;;;;;;;26.53;14.90;;;6.20;99.90;;;;;;5074535;28;20978;-77
2022/11/27 02:41:17;;;;;;;19.00;15.10;;;6.10;99.90;;;;;;5075748;28;20420;-77
2022/11/27 02:43:48;;;;;;;21.67;15.33;;;6.10;99.90;;;;;;5074287;28;20486;-78
2022/11/27 02:46:20;;;;;;;25.30;16.60;;;6.10;99.90;;;;;;5074446;28;20495;-77
2022/11/27 02:48:50;;;;;;;20.87;15.73;;;6.10;99.90;;;;;;5074680;28;20449;-77
2022/11/27 02:51:22;;;;;;;19.23;15.43;;;6.10;99.90;;;;;;5075902;28;20437;-78
2022/11/27 02:53:53;;;;;;;20.70;16.70;;;6.10;99.90;;;;;;5074407;28;20472;-77
2022/11/27 02:56:26;;;;;;;21.63;17.00;;;6.00;99.90;;;;;;5071368;28;20498;-78
2022/11/27 02:58:59;;;;;;;21.70;16.80;;;6.00;99.90;;;;;;5074172;28;20441;-78
2022/11/27 03:01:32;;;;;;;20.80;16.83;;;6.00;99.90;;;;;;5074198;28;20449;-77
2022/11/27 03:04:02;;;;;;;23.60;16.60;;;6.00;99.90;;;;;;5079838;28;20563;-78
2022/11/27 03:06:54;;;;;;;20.07;16.60;;;6.00;99.90;;;;;;5075893;28;20473;-77
2022/11/27 03:09:27;;;;;;;23.70;17.17;;;5.90;99.90;;;;;;5075848;28;20796;-78
2022/11/27 03:11:56;;;;;;;24.83;18.90;;;5.90;99.90;;;;;;5074887;28;20418;-78
2022/11/27 03:14:24;;;;;;;28.33;19.70;;;5.90;99.90;;;;;;5075952;28;20465;-78
2022/11/27 03:17:02;;;;;;;23.60;18.70;;;5.90;99.90;;;;;;5075841;28;20809;-78
2022/11/27 03:19:39;;;;;;;23.13;19.20;;;5.80;99.90;;;;;;5075610;28;20421;-78
2022/11/27 03:22:07;;;;;;;22.77;19.40;;;5.80;99.90;;;;;;5075660;28;20413;-78
2022/11/27 03:24:36;;;;;;;24.87;20.30;;;5.80;99.90;;;;;;5073902;28;20514;-78
2022/11/27 03:27:06;;;;;;;23.27;19.37;;;5.80;99.90;;;;;;5073634;28;20457;-78
2022/11/27 03:29:39;;;;;;;23.57;21.00;;;5.70;99.90;;;;;;5073584;28;20543;-78
2022/11/27 03:32:09;;;;;;;23.00;19.83;;;5.70;99.90;;;;;;5074721;28;20449;-78
2022/11/27 03:34:38;;;;;;;21.77;18.83;;;5.70;99.90;;;;;;5073422;28;20818;-78
2022/11/27 03:37:07;;;;;;;22.87;18.20;;;5.60;99.90;;;;;;5075060;28;20498;-78
2022/11/27 03:39:36;;;;;;;21.30;17.90;;;5.60;99.90;;;;;;5074916;28;20441;-78
2022/11/27 03:42:12;;;;;;;25.20;20.30;;;5.60;99.90;;;;;;5073384;28;20459;-78
2022/11/27 03:44:45;;;;;;;23.13;19.10;;;5.60;99.90;;;;;;5073442;28;20484;-78
2022/11/27 03:47:30;;;;;;;24.37;20.10;;;5.50;99.90;;;;;;5071321;28;20962;-78
2022/11/27 03:50:13;;;;;;;28.43;20.50;;;5.50;99.90;;;;;;5073304;28;20437;-78
2022/11/27 03:52:49;;;;;;;25.03;20.83;;;5.50;99.90;;;;;;5074619;28;20432;-78
2022/11/27 03:55:24;;;;;;;22.90;19.37;;;5.50;99.90;;;;;;5073126;28;20871;-78
2022/11/27 03:57:57;;;;;;;27.90;21.37;;;5.40;99.90;;;;;;5074567;28;20424;-78
2022/11/27 04:00:26;;;;;;;22.67;19.80;;;5.40;99.90;;;;;;5074536;28;20428;-78
2022/11/27 04:02:56;;;;;;;26.40;21.73;;;5.40;99.90;;;;;;5072923;28;20495;-78
2022/11/27 04:05:24;;;;;;;24.60;20.27;;;5.40;99.90;;;;;;5074037;28;20874;-78
2022/11/27 04:07:52;;;;;;;26.10;20.77;;;5.30;99.90;;;;;;5074338;28;20449;-78
2022/11/27 04:10:20;;;;;;;26.43;20.40;;;5.30;99.90;;;;;;5072871;28;20961;-78
2022/11/27 04:12:48;;;;;;;25.30;21.20;;;5.30;99.90;;;;;;5074216;28;20490;-78
2022/11/27 04:15:17;;;;;;;22.23;19.10;;;5.30;99.90;;;;;;5072712;28;20445;-78
2022/11/27 04:17:45;;;;;;;32.83;22.80;;;5.20;99.90;;;;;;5072629;28;20441;-77
2022/11/27 04:20:15;;;;;;;22.97;20.57;;;5.20;99.90;;;;;;5073784;28;20942;-78
2022/11/27 04:22:43;;;;;;;29.77;23.00;;;5.20;99.90;;;;;;5073465;28;20429;-78
2022/11/27 04:25:11;;;;;;;26.20;22.90;;;5.20;99.90;;;;;;5072499;28;20465;-78
2022/11/27 04:27:39;;;;;;;23.20;20.60;;;5.10;99.90;;;;;;5072447;28;20453;-78
2022/11/27 04:30:08;;;;;;;26.50;21.03;;;5.10;99.90;;;;;;5073774;28;20498;-77
2022/11/27 04:32:36;;;;;;;28.13;20.70;;;5.10;99.90;;;;;;5073906;28;20437;-78
2022/11/27 04:35:05;;;;;;;24.80;21.17;;;5.10;99.90;;;;;;5072271;28;20465;-78
2022/11/27 04:37:35;;;;;;;27.30;21.03;;;5.00;99.90;;;;;;5073316;28;20858;-78
2022/11/27 04:40:05;;;;;;;22.67;20.23;;;5.00;99.90;;;;;;5073527;28;20445;-78
2022/11/27 04:42:33;;;;;;;25.80;20.03;;;5.00;99.90;;;;;;5072479;28;20450;-78
2022/11/27 04:45:01;;;;;;;23.67;20.03;;;4.90;99.90;;;;;;5072049;28;20990;-78
2022/11/27 04:47:29;;;;;;;28.03;20.20;;;4.90;99.90;;;;;;5072422;28;20490;-78
2022/11/27 04:49:57;;;;;;;26.40;20.30;;;4.90;99.90;;;;;;5073427;28;20441;-78
2022/11/27 04:52:25;;;;;;;22.93;19.70;;;4.90;99.90;;;;;;5072134;28;20522;-78
2022/11/27 04:54:54;;;;;;;23.10;19.77;;;4.80;99.90;;;;;;5073548;28;20473;-78
2022/11/27 04:57:27;;;;;;;23.23;18.43;;;4.80;99.90;;;;;;5072127;28;20441;-78
2022/11/27 04:59:55;;;;;;;21.07;18.80;;;4.80;99.90;;;;;;5072096;28;20460;-77
2022/11/27 05:02:23;;;;;;;22.33;18.83;;;4.80;99.90;;;;;;5073286;28;21023;-78
2022/11/27 05:04:52;;;;;;;23.17;18.70;;;4.70;99.90;;;;;;5071806;28;20974;-77
2022/11/27 05:07:20;;;;;;;23.40;18.57;;;4.70;99.90;;;;;;5072175;28;21054;-78
2022/11/27 05:09:48;;;;;;;27.20;19.83;;;4.70;99.90;;;;;;5071923;28;20448;-78
2022/11/27 05:12:18;;;;;;;25.97;19.07;;;4.70;99.90;;;;;;5071912;28;20449;-77
2022/11/27 05:14:46;;;;;;;21.23;16.67;;;4.70;99.90;;;;;;5071989;28;20473;-78
2022/11/27 05:17:14;;;;;;;22.17;17.13;;;4.60;99.90;;;;;;5073456;28;20838;-78
2022/11/27 05:19:42;;;;;;;21.60;18.53;;;4.60;99.90;;;;;;5072165;28;20456;-78
2022/11/27 05:22:10;;;;;;;23.17;17.20;;;4.60;99.90;;;;;;5071760;28;20975;-78
2022/11/27 05:24:39;;;;;;;23.57;18.23;;;4.60;99.90;;;;;;5071664;28;20986;-78
2022/11/27 05:27:07;;;;;;;22.70;17.60;;;4.50;99.90;;;;;;5071228;28;20453;-77
2022/11/27 05:29:38;;;;;;;24.57;17.90;;;4.50;99.90;;;;;;5073329;28;20776;-78
2022/11/27 05:32:06;;;;;;;22.43;16.87;;;4.50;99.90;;;;;;5071880;28;20474;-78
2022/11/27 05:34:34;;;;;;;22.67;17.10;;;4.50;99.90;;;;;;5075498;28;21035;-78
2022/11/27 05:37:02;;;;;;;22.03;16.97;;;4.50;99.90;;;;;;5077253;28;20440;-78
2022/11/27 05:39:30;;;;;;;24.40;17.17;;;4.50;99.90;;;;;;5075900;28;20502;-77
2022/11/27 05:41:58;;;;;;;20.53;17.40;;;4.50;99.90;;;;;;5076849;28;20437;-78
2022/11/27 05:44:27;;;;;;;22.83;17.90;;;4.40;99.90;;;;;;5075906;28;20911;-78
2022/11/27 05:46:56;;;;;;;21.07;16.67;;;4.40;99.90;;;;;;5076743;28;20930;-78
2022/11/27 05:49:25;;;;;;;20.20;17.43;;;4.40;99.90;;;;;;5077324;28;20440;-77
2022/11/27 05:51:53;;;;;;;23.07;18.47;;;4.40;99.90;;;;;;5075416;28;20498;-78
2022/11/27 05:54:21;;;;;;;25.07;18.00;;;4.40;99.90;;;;;;5075413;28;20522;-78
2022/11/27 05:56:49;;;;;;;19.70;17.60;;;4.40;99.90;;;;;;5076593;28;20528;-78
2022/11/27 05:59:17;;;;;;;19.30;17.27;;;4.30;99.90;;;;;;5075356;28;20460;-77
2022/11/27 06:01:45;;;;;;;20.40;17.13;;;4.40;99.90;;;;;;5076727;28;20442;-78
2022/11/27 06:04:14;;;;;;;19.03;16.93;;;4.30;99.90;;;;;;5075087;28;20492;-78
2022/11/27 06:06:42;;;;;;;23.27;18.30;;;4.30;99.90;;;;;;5075038;28;20605;-77
2022/11/27 06:09:12;;;;;;;21.63;18.47;;;4.30;99.90;;;;;;5076628;28;20436;-78
2022/11/27 06:11:41;;;;;;;23.10;18.90;;;4.30;99.90;;;;;;5075127;28;20534;-78
2022/11/27 06:14:10;;;;;;;21.93;18.63;;;4.30;99.90;;;;;;5075052;28;20474;-78
2022/11/27 06:16:38;;;;;;;22.10;17.57;;;4.20;99.90;;;;;;5072040;28;20540;-78
2022/11/27 06:19:07;;;;;;;23.73;18.30;;;4.20;99.90;;;;;;5076818;28;20441;-78
2022/11/27 06:21:37;;;;;;;22.70;18.07;;;4.20;99.90;;;;;;5075192;28;20875;-78
2022/11/27 06:24:05;;;;;;;24.27;18.77;;;4.20;99.90;;;;;;5076317;28;20469;-78
2022/11/27 06:26:34;;;;;;;22.80;18.27;;;4.20;99.90;;;;;;5075931;28;20588;-78
2022/11/27 06:29:02;;;;;;;24.13;20.10;;;4.10;99.90;;;;;;5076219;28;20435;-78
2022/11/27 06:31:32;;;;;;;22.80;19.17;;;4.10;99.90;;;;;;5074491;28;20449;-78
2022/11/27 06:34:00;;;;;;;21.83;17.80;;;4.10;99.90;;;;;;5076269;28;20457;-78
2022/11/27 06:36:30;;;;;;;22.73;17.70;;;4.10;99.90;;;;;;5075866;28;20444;-78
2022/11/27 06:39:00;;;;;;;21.47;19.23;;;4.10;99.90;;;;;;5074903;28;20505;-78
2022/11/27 06:41:28;;;;;;;23.50;18.50;;;4.10;99.90;;;;;;5075865;28;20440;-78
2022/11/27 06:43:59;;;;;;;24.33;19.60;;;4.10;99.90;;;;;;5075914;28;20818;-78
2022/11/27 06:46:28;;;;;;;24.50;19.00;;;4.10;99.90;;;;;;5075838;28;20490;-78
2022/11/27 06:48:58;;;;;;;23.87;18.83;;;4.00;99.90;;;;;;5074570;28;20449;-78
2022/11/27 06:51:28;;;;;;;20.20;18.03;;;4.00;99.90;;;;;;5074414;28;20452;-78
2022/11/27 06:53:58;;;;;;;25.20;18.63;;;4.10;99.90;;;;;;5075506;28;20474;-77
2022/11/27 06:56:30;;;;;;;22.40;17.93;;;4.00;99.90;;;;;;5078697;28;20446;-78
2022/11/27 06:59:00;;;;;;;22.73;19.67;;;4.00;99.90;;;;;;5077914;28;20506;-77
2022/11/27 07:01:30;;;;;;;22.63;18.80;;;4.00;99.90;;;;;;5076173;28;20443;-78
2022/11/27 07:03:59;;;;;;;21.07;17.37;;;4.00;99.90;;;;;;5074553;28;20559;-78
2022/11/27 07:06:27;;;;;;;28.53;20.13;;;4.00;99.90;;;;;;5072559;28;20467;-78
2022/11/27 07:08:56;;;;;;;23.30;20.80;;;4.00;99.90;;;;;;5075661;28;20441;-78
2022/11/27 07:11:25;;;;;;;26.43;20.40;;;4.00;99.90;;;;;;5074330;28;20530;-78
2022/11/27 07:13:57;;;;;;;23.07;19.60;;;4.00;99.90;;;;;;5075655;28;20461;-78
2022/11/27 07:16:28;;;;;;;25.83;18.47;;;4.00;99.90;;;;;;5075795;28;20523;-78
2022/11/27 07:18:59;;;;;;;23.17;17.67;;;4.00;99.90;;;;;;5080016;28;20437;-78
2022/11/27 07:21:27;;;;;;;24.07;18.60;;;4.00;99.90;;;;;;5077339;28;20438;-78
2022/11/27 07:23:56;;;;;;;22.87;19.53;;;4.00;99.90;;;;;;5076856;28;20511;-78
2022/11/27 07:26:27;;;;;;;21.90;17.77;;;4.00;99.90;;;;;;5077919;28;20886;-78
2022/11/27 07:28:57;;;;;;;25.00;19.47;;;4.00;99.90;;;;;;5068271;28;20457;-78
2022/11/27 07:31:26;;;;;;;25.30;19.40;;;4.00;99.90;;;;;;5058185;28;20499;-78
2022/11/27 07:33:56;;;;;;;23.93;19.43;;;4.00;99.90;;;;;;5053973;28;20475;-78
2022/11/27 07:36:25;;;;;;;22.37;18.20;;;4.00;99.90;;;;;;5071994;28;20441;-78
2022/11/27 07:38:53;;;;;;;28.60;19.27;;;4.00;99.90;;;;;;5072748;28;20447;-78
2022/11/27 07:41:22;;;;;;;20.93;18.53;;;4.00;99.90;;;;;;5073181;28;20445;-78
2022/11/27 07:43:50;;;;;;;26.30;20.67;;;4.00;99.90;;;;;;5071842;28;20473;-78
2022/11/27 07:46:21;;;;;;;23.80;18.80;;;4.00;99.90;;;;;;5068998;28;20473;-78
2022/11/27 07:48:50;;;;;;;21.93;19.13;;;4.00;99.90;;;;;;5050903;28;20457;-78
2022/11/27 07:51:20;;;;;;;24.20;18.30;;;4.00;99.90;;;;;;5050871;28;20543;-78
2022/11/27 07:53:50;;;;;;;21.33;18.13;;;4.00;99.90;;;;;;5052199;28;20469;-78
2022/11/27 07:56:19;;;;;;;22.30;18.67;;;4.00;99.90;;;;;;5051523;28;20426;-78
2022/11/27 07:58:48;;;;;;;23.63;19.00;;;4.00;99.90;;;;;;5051842;28;20438;-78
2022/11/27 08:01:20;;;;;;;27.10;19.30;;;4.00;99.90;;;;;;5050388;28;20491;-78
2022/11/27 08:03:48;;;;;;;23.37;18.70;;;4.00;99.90;;;;;;5050074;28;20468;-78
2022/11/27 08:06:18;;;;;;;27.30;20.80;;;4.00;99.90;;;;;;5050146;28;20506;-78
2022/11/27 08:08:46;;;;;;;24.93;20.40;;;4.00;99.90;;;;;;5050381;28;20810;-78
2022/11/27 08:11:17;;;;;;;24.73;18.20;;;4.00;99.90;;;;;;5048457;28;21029;-78
2022/11/27 08:13:45;;;;;;;25.03;20.50;;;4.00;99.90;;;;;;5051413;28;20459;-78
2022/11/27 08:16:13;;;;;;;25.43;22.13;;;4.00;99.90;;;;;;5051205;28;20444;-78
2022/11/27 08:18:42;;;;;;;22.10;19.80;;;4.10;99.90;;;;;;5050276;28;20815;-78
2022/11/27 08:21:11;;;;;;;22.00;19.60;;;4.00;99.90;;;;;;5050393;28;20465;-79
2022/11/27 08:23:39;;;;;;;24.53;19.87;;;4.10;99.90;;;;;;5061485;28;20538;-78
2022/11/27 08:26:09;;;;;;;22.40;20.00;;;4.10;99.90;;;;;;5072371;28;20468;-79
2022/11/27 08:28:37;;;;;;;26.03;19.87;;;4.10;99.90;;;;;;5072371;28;20440;-79
2022/11/27 08:31:08;;;;;;;26.63;18.57;;;4.10;99.90;;;;;;5071333;28;20566;-79
2022/11/27 08:33:36;;;;;;;21.60;17.90;;;4.10;99.90;;;;;;5071901;28;20819;-78
2022/11/27 08:36:07;;;;;;;23.23;19.40;;;4.10;99.90;;;;;;5069902;28;20452;-77
2022/11/27 08:38:39;;;;;;;25.53;20.67;;;4.10;99.90;;;;;;5070089;28;20994;-78
2022/11/27 08:41:09;;;;;;;22.43;19.53;;;4.10;99.90;;;;;;5069624;28;20453;-78
2022/11/27 08:43:37;;;;;;;24.73;20.27;;;4.10;99.90;;;;;;5069687;28;20472;-78
2022/11/27 08:46:06;;;;;;;25.33;21.03;;;4.10;99.90;;;;;;5069711;28;20484;-79
2022/11/27 08:48:34;;;;;;;26.53;21.20;;;4.10;99.90;;;;;;5069882;28;20449;-79
2022/11/27 08:51:07;;;;;;;28.10;21.73;;;4.20;99.90;;;;;;5069666;28;20453;-77
2022/11/27 08:53:36;;;;;;;26.20;20.60;;;4.20;99.90;;;;;;5069329;28;20476;-77
2022/11/27 08:56:09;;;;;;;25.53;21.70;;;4.20;99.90;;;;;;5070944;28;20445;-78
2022/11/27 08:58:39;;;;;;;24.20;19.67;;;4.20;99.90;;;;;;5069478;28;20962;-77
2022/11/27 09:01:09;;;;;;;22.70;20.23;;;4.30;99.90;;;;;;5070804;28;20519;-77
2022/11/27 09:03:38;;;;;;;22.77;19.47;;;4.30;99.90;;;;;;5069235;28;20473;-76
2022/11/27 09:06:09;;;;;;;29.40;23.93;;;4.40;99.90;;;;;;5070843;28;20440;-78
2022/11/27 09:08:38;;;;;;;27.80;21.90;;;4.40;99.90;;;;;;5068773;28;20447;-77
2022/11/27 09:11:07;;;;;;;23.43;19.10;;;4.50;99.90;;;;;;5067291;28;20507;-77
2022/11/27 09:13:36;;;;;;;26.23;20.23;;;4.50;99.90;;;;;;5069377;28;20478;-77
2022/11/27 09:16:08;;;;;;;22.97;19.13;;;4.60;99.90;;;;;;5068974;28;20459;-76
2022/11/27 09:18:36;;;;;;;22.13;18.97;;;4.60;99.90;;;;;;5069339;28;20479;-77
2022/11/27 09:21:06;;;;;;;21.33;19.03;;;4.60;99.90;;;;;;5070600;28;20813;-77
2022/11/27 09:23:37;;;;;;;26.40;21.10;;;4.70;99.90;;;;;;5057989;28;20481;-77
2022/11/27 09:26:08;;;;;;;22.57;20.20;;;4.70;99.90;;;;;;5065194;28;20791;-77
2022/11/27 09:28:37;;;;;;;23.33;20.03;;;4.70;99.90;;;;;;5071868;28;20498;-78
2022/11/27 09:31:08;;;;;;;26.30;18.93;;;4.70;99.90;;;;;;5069212;28;21040;-77
2022/11/27 09:33:38;;;;;;;21.20;19.00;;;4.80;99.90;;;;;;5071515;28;20486;-77
2022/11/27 09:36:09;;;;;;;22.10;19.30;;;4.80;99.90;;;;;;5071822;28;20472;-78
2022/11/27 09:38:39;;;;;;;26.37;18.93;;;4.80;99.90;;;;;;5071944;28;20444;-78
2022/11/27 09:41:37;;;;;;;20.17;17.43;;;4.80;99.90;;;;;;5071744;28;20895;-78
2022/11/27 09:44:16;;;;;;;20.80;18.40;;;4.90;99.90;;;;;;5071679;28;20483;-78
2022/11/27 09:46:44;;;;;;;22.40;18.43;;;4.90;99.90;;;;;;5073202;28;20468;-78
2022/11/27 09:49:17;;;;;;;21.20;18.43;;;4.90;99.90;;;;;;5071798;28;20448;-78
2022/11/27 09:51:52;;;;;;;20.80;18.20;;;5.00;99.90;;;;;;5073043;28;20834;-78
2022/11/27 09:54:26;;;;;;;21.63;18.30;;;5.10;99.90;;;;;;5071761;28;21030;-78
2022/11/27 09:56:56;;;;;;;21.40;18.43;;;5.10;99.90;;;;;;5075432;28;20846;-78
2022/11/27 09:59:32;;;;;;;19.20;16.00;;;5.20;99.90;;;;;;5074798;28;20433;-78
2022/11/27 10:02:00;;;;;;;24.90;19.00;;;5.20;99.90;;;;;;5073909;28;20449;-78
2022/11/27 10:04:28;;;;;;;21.47;19.17;;;5.30;99.90;;;;;;5073618;28;20524;-78
2022/11/27 10:07:28;;;;;;;19.80;17.70;;;5.30;99.90;;;;;;5072954;28;20518;-78
2022/11/27 10:10:20;;;;;;;20.80;18.63;;;5.40;99.90;;;;;;5071665;28;20440;-78
2022/11/27 10:13:00;;;;;;;19.67;17.67;;;5.50;99.90;;;;;;5072476;28;20807;-78
2022/11/27 10:15:41;;;;;;;19.00;17.00;;;5.50;99.90;;;;;;5072783;28;20460;-78
2022/11/27 10:18:14;;;;;;;18.80;16.80;;;5.50;99.90;;;;;;5071617;28;20926;-78
2022/11/27 10:20:48;;;;;;;20.10;18.20;;;5.60;99.90;;;;;;5075017;28;20429;-78
2022/11/27 10:23:27;;;;;;;21.53;19.10;;;5.60;99.90;;;;;;5073077;28;20479;-78
2022/11/27 10:26:01;;;;;;;19.23;17.33;;;5.70;99.90;;;;;;5074956;28;20818;-78
2022/11/27 10:28:40;;;;;;;19.87;17.43;;;5.70;99.90;;;;;;5074941;28;20555;-77
2022/11/27 10:31:13;;;;;;;19.10;17.17;;;5.80;99.90;;;;;;5076228;28;20460;-78
2022/11/27 10:33:45;;;;;;;18.40;16.50;;;5.80;99.90;;;;;;5076142;28;21068;-78
2022/11/27 10:36:17;;;;;;;18.47;16.27;;;5.80;99.90;;;;;;5074818;28;20441;-77
2022/11/27 10:38:48;;;;;;;20.70;16.53;;;5.80;99.90;;;;;;5074615;28;20451;-78
2022/11/27 10:41:23;;;;;;;19.13;17.07;;;5.90;99.90;;;;;;5076114;28;20421;-78
2022/11/27 10:44:25;;;;;;;18.53;16.27;;;5.90;99.90;;;;;;5075667;28;20470;-77
2022/11/27 10:46:58;;;;;;;19.73;17.60;;;5.90;99.90;;;;;;5074484;28;20785;-77
2022/11/27 10:49:26;;;;;;;17.80;16.07;;;6.00;99.90;;;;;;5075549;28;20949;-78
2022/11/27 10:51:54;;;;;;;19.47;16.60;;;6.00;99.90;;;;;;5074319;28;20453;-77
2022/11/27 10:54:26;;;;;;;18.03;16.23;;;6.10;99.90;;;;;;5075804;28;20464;-77
2022/11/27 10:57:45;;;;;;;17.20;15.17;;;6.10;99.90;;;;;;5074345;28;20441;-77
2022/11/27 11:00:19;;;;;;;16.37;14.67;;;6.10;99.90;;;;;;5009382;28;20989;-77
2022/11/27 11:02:47;;;;;;;18.00;16.30;;;6.10;99.90;;;;;;5070586;28;20445;-77
2022/11/27 11:05:22;;;;;;;17.37;15.40;;;6.20;99.90;;;;;;5074144;28;20842;-77
2022/11/27 11:08:17;;;;;;;18.00;16.13;;;6.20;99.90;;;;;;5073838;28;20487;-77
2022/11/27 11:10:51;;;;;;;19.87;16.00;;;6.30;99.90;;;;;;5075988;28;20410;-77
2022/11/27 11:13:21;;;;;;;16.57;14.83;;;6.30;99.90;;;;;;5073333;28;20476;-78
2022/11/27 11:15:54;;;;;;;16.83;15.23;;;6.40;99.90;;;;;;5073918;28;20817;-77
2022/11/27 11:18:24;;;;;;;17.97;14.80;;;6.40;99.90;;;;;;5073912;28;20438;-77
2022/11/27 11:20:54;;;;;;;17.13;14.90;;;6.40;99.90;;;;;;5073926;28;20437;-77
2022/11/27 11:23:27;;;;;;;19.60;16.10;;;6.50;99.90;;;;;;5073738;28;20473;-77
2022/11/27 11:25:58;;;;;;;16.27;14.57;;;6.50;99.90;;;;;;5073752;28;20457;-77
2022/11/27 11:28:27;;;;;;;16.93;15.23;;;6.60;99.90;;;;;;5073598;28;20467;-77
2022/11/27 11:31:05;;;;;;;17.23;15.60;;;6.60;99.90;;;;;;5074108;28;20445;-77
2022/11/27 11:33:47;;;;;;;18.13;16.30;;;6.60;99.90;;;;;;5075389;28;20976;-77
2022/11/27 11:36:16;;;;;;;17.03;15.23;;;6.60;99.90;;;;;;5075406;28;20420;-77
2022/11/27 11:38:46;;;;;;;17.63;15.03;;;6.70;99.90;;;;;;5074713;28;20489;-77
2022/11/27 11:41:16;;;;;;;16.17;14.67;;;6.70;99.90;;;;;;5073403;28;20437;-77
2022/11/27 11:43:55;;;;;;;17.07;15.33;;;6.70;99.90;;;;;;5074778;28;20462;-77
2022/11/27 11:46:27;;;;;;;16.00;14.40;;;6.80;99.90;;;;;;5074933;28;20421;-77
2022/11/27 11:49:01;;;;;;;14.97;13.47;;;6.80;99.90;;;;;;5073418;28;20475;-77
2022/11/27 11:52:05;;;;;;;15.33;13.67;;;6.80;99.90;;;;;;5073227;28;20806;-77
2022/11/27 11:54:49;;;;;;;16.60;14.90;;;6.80;99.90;;;;;;5067868;28;20476;-77
2022/11/27 11:57:48;;;;;;;16.03;14.53;;;6.80;99.90;;;;;;5073023;28;20447;-77
2022/11/27 12:00:18;;;;;;;18.80;16.87;;;6.80;99.90;;;;;;5070966;28;20449;-77
2022/11/27 12:03:07;;;;;;;15.13;13.57;;;6.80;99.90;;;;;;5070215;28;20548;-76
2022/11/27 12:05:40;;;;;;;15.77;13.80;;;6.90;99.90;;;;;;5074474;28;20516;-77
2022/11/27 12:08:33;;;;;;;15.90;14.20;;;6.90;99.90;;;;;;5074105;28;20458;-77
2022/11/27 12:11:08;;;;;;;16.53;13.80;;;6.90;99.90;;;;;;5074399;28;20588;-77
2022/11/27 12:13:48;;;;;;;16.50;14.77;;;7.00;99.90;;;;;;5072856;28;20832;-77
2022/11/27 12:16:26;;;;;;;16.43;14.83;;;7.00;99.90;;;;;;5072766;28;20452;-77
2022/11/27 12:19:24;;;;;;;16.07;14.47;;;7.00;99.90;;;;;;5073886;28;20495;-77
2022/11/27 12:22:01;;;;;;;17.00;14.30;;;7.00;99.90;;;;;;5073835;28;20838;-77
2022/11/27 12:24:39;;;;;;;17.33;15.00;;;7.00;99.90;;;;;;5073736;28;20472;-77
2022/11/27 12:27:20;;;;;;;14.73;13.30;;;7.00;99.90;;;;;;5072537;28;20515;-77
2022/11/27 12:30:06;;;;;;;15.10;13.60;;;7.00;99.90;;;;;;5072463;28;20604;-77
2022/11/27 12:33:11;;;;;;;15.90;13.33;;;7.10;99.90;;;;;;5073164;28;20452;-77
2022/11/27 12:35:44;;;;;;;17.53;13.87;;;7.10;99.90;;;;;;5052815;28;20452;-77
2022/11/27 12:38:51;;;;;;;15.37;13.47;;;7.10;99.90;;;;;;5073943;28;20418;-77
2022/11/27 12:41:36;;;;;;;14.70;13.30;;;7.10;99.90;;;;;;5072246;28;20781;-77
2022/11/27 12:44:12;;;;;;;20.73;15.50;;;7.10;99.90;;;;;;5072088;28;20492;-77
2022/11/27 12:46:49;;;;;;;14.03;12.63;;;7.10;99.90;;;;;;5074113;28;20537;-77
2022/11/27 12:49:22;;;;;;;17.20;15.40;;;7.10;99.90;;;;;;5072715;28;20462;-77
2022/11/27 12:51:55;;;;;;;15.73;14.13;;;7.10;99.90;;;;;;5069193;28;20461;-77
2022/11/27 12:54:29;;;;;;;14.40;13.07;;;7.10;99.90;;;;;;5073379;28;20462;-77
2022/11/27 12:57:01;;;;;;;13.47;12.07;;;7.10;99.90;;;;;;5073990;28;20482;-77
2022/11/27 12:59:33;;;;;;;13.50;12.30;;;7.20;99.90;;;;;;5072064;28;20433;-77
2022/11/27 13:02:14;;;;;;;14.57;13.07;;;7.20;99.90;;;;;;5072099;28;20430;-76